sensor_id;sensor_type;location;lat;lon;timestamp;pressure;altitude;pressure_sealevel;temperature;humidity
65832;BME280;52593;42.648;23.332;2023-06-24T00:01:35;94570.03;;;19.99;86.62
65832;BME280;52593;42.648;23.332;2023-06-24T00:04:01;94579.00;;;19.99;86.10
65832;BME280;52593;42.648;23.332;2023-06-24T00:06:27;94572.75;;;19.99;85.48
65832;BME280;52593;42.648;23.332;2023-06-24T00:08:52;94570.72;;;20.06;85.35
65832;BME280;52593;42.648;23.332;2023-06-24T00:11:25;94572.84;;;20.04;85.84
65832;BME280;52593;42.648;23.332;2023-06-24T00:13:51;94571.34;;;19.96;85.68
65832;BME280;52593;42.648;23.332;2023-06-24T00:16:16;94569.94;;;19.93;85.46
65832;BME280;52593;42.648;23.332;2023-06-24T00:18:41;94565.22;;;19.89;86.22
65832;BME280;52593;42.648;23.332;2023-06-24T00:21:07;94573.50;;;19.82;85.78
65832;BME280;52593;42.648;23.332;2023-06-24T00:23:32;94577.28;;;19.81;87.14
65832;BME280;52593;42.648;23.332;2023-06-24T00:26:01;94575.66;;;19.80;87.10
65832;BME280;52593;42.648;23.332;2023-06-24T00:28:26;94578.13;;;19.82;87.04
65832;BME280;52593;42.648;23.332;2023-06-24T00:30:52;94581.97;;;19.74;86.93
65832;BME280;52593;42.648;23.332;2023-06-24T00:33:18;94582.00;;;19.86;87.13
65832;BME280;52593;42.648;23.332;2023-06-24T00:35:45;94578.94;;;19.82;87.01
65832;BME280;52593;42.648;23.332;2023-06-24T00:38:10;94578.63;;;19.78;87.23
65832;BME280;52593;42.648;23.332;2023-06-24T00:40:37;94577.16;;;19.76;86.45
65832;BME280;52593;42.648;23.332;2023-06-24T00:43:03;94582.59;;;19.88;86.32
65832;BME280;52593;42.648;23.332;2023-06-24T00:45:28;94577.66;;;19.85;85.76
65832;BME280;52593;42.648;23.332;2023-06-24T00:47:58;94580.47;;;19.78;86.40
65832;BME280;52593;42.648;23.332;2023-06-24T00:50:23;94575.75;;;19.73;86.72
65832;BME280;52593;42.648;23.332;2023-06-24T00:52:49;94575.28;;;19.65;87.01
65832;BME280;52593;42.648;23.332;2023-06-24T00:55:16;94563.16;;;19.55;87.34
65832;BME280;52593;42.648;23.332;2023-06-24T00:57:43;94571.56;;;19.42;88.78
65832;BME280;52593;42.648;23.332;2023-06-24T01:00:10;94568.50;;;19.38;89.66
65832;BME280;52593;42.648;23.332;2023-06-24T01:02:54;94568.88;;;19.30;90.21
65832;BME280;52593;42.648;23.332;2023-06-24T01:05:20;94563.09;;;19.27;90.61
65832;BME280;52593;42.648;23.332;2023-06-24T01:07:49;94560.84;;;19.23;91.35
65832;BME280;52593;42.648;23.332;2023-06-24T01:10:21;94552.81;;;19.29;91.14
65832;BME280;52593;42.648;23.332;2023-06-24T01:12:48;94549.78;;;19.25;91.78
65832;BME280;52593;42.648;23.332;2023-06-24T01:15:14;94568.03;;;19.30;91.99
65832;BME280;52593;42.648;23.332;2023-06-24T01:17:46;94560.59;;;19.37;91.31
65832;BME280;52593;42.648;23.332;2023-06-24T01:26:20;94548.47;;;19.16;92.65
65832;BME280;52593;42.648;23.332;2023-06-24T01:29:15;94554.25;;;19.19;92.34
65832;BME280;52593;42.648;23.332;2023-06-24T01:37:08;94558.84;;;19.19;92.16
65832;BME280;52593;42.648;23.332;2023-06-24T01:39:40;94554.84;;;19.10;92.36
65832;BME280;52593;42.648;23.332;2023-06-24T01:42:10;94564.53;;;19.17;92.13
65832;BME280;52593;42.648;23.332;2023-06-24T01:44:37;94562.75;;;19.11;91.21
65832;BME280;52593;42.648;23.332;2023-06-24T01:47:05;94580.78;;;19.05;91.73
65832;BME280;52593;42.648;23.332;2023-06-24T01:49:32;94587.72;;;19.01;91.33
65832;BME280;52593;42.648;23.332;2023-06-24T01:51:59;94580.88;;;18.99;91.31
65832;BME280;52593;42.648;23.332;2023-06-24T01:54:28;94587.16;;;18.99;91.62
65832;BME280;52593;42.648;23.332;2023-06-24T01:56:57;94590.44;;;19.01;91.69
65832;BME280;52593;42.648;23.332;2023-06-24T01:59:25;94594.09;;;18.95;93.31
65832;BME280;52593;42.648;23.332;2023-06-24T02:01:53;94600.94;;;18.86;93.52
65832;BME280;52593;42.648;23.332;2023-06-24T02:04:20;94600.88;;;18.74;93.95
65832;BME280;52593;42.648;23.332;2023-06-24T02:06:46;94593.19;;;18.71;94.90
65832;BME280;52593;42.648;23.332;2023-06-24T02:09:13;94605.25;;;18.75;95.24
65832;BME280;52593;42.648;23.332;2023-06-24T02:11:41;94603.25;;;18.82;95.09
65832;BME280;52593;42.648;23.332;2023-06-24T02:14:07;94612.78;;;18.73;95.41
65832;BME280;52593;42.648;23.332;2023-06-24T02:16:35;94595.91;;;18.71;95.28
65832;BME280;52593;42.648;23.332;2023-06-24T02:19:01;94598.50;;;18.66;95.90
65832;BME280;52593;42.648;23.332;2023-06-24T02:21:27;94599.09;;;18.68;95.76
65832;BME280;52593;42.648;23.332;2023-06-24T02:23:54;94613.38;;;18.75;95.50
65832;BME280;52593;42.648;23.332;2023-06-24T02:26:20;94608.31;;;18.67;96.04
65832;BME280;52593;42.648;23.332;2023-06-24T02:28:48;94614.66;;;18.72;95.69
65832;BME280;52593;42.648;23.332;2023-06-24T02:31:15;94614.31;;;18.69;95.60
65832;BME280;52593;42.648;23.332;2023-06-24T02:33:40;94628.91;;;18.68;95.53
65832;BME280;52593;42.648;23.332;2023-06-24T02:36:06;94636.56;;;18.71;95.49
65832;BME280;52593;42.648;23.332;2023-06-24T02:38:31;94640.25;;;18.77;95.23
65832;BME280;52593;42.648;23.332;2023-06-24T02:40:57;94641.63;;;18.67;94.79
65832;BME280;52593;42.648;23.332;2023-06-24T02:43:23;94658.03;;;18.72;94.88
65832;BME280;52593;42.648;23.332;2023-06-24T02:45:49;94649.06;;;18.72;94.46
65832;BME280;52593;42.648;23.332;2023-06-24T02:48:16;94653.91;;;18.70;94.64
65832;BME280;52593;42.648;23.332;2023-06-24T02:50:42;94643.25;;;18.57;95.39
65832;BME280;52593;42.648;23.332;2023-06-24T02:53:13;94649.50;;;18.57;95.98
65832;BME280;52593;42.648;23.332;2023-06-24T02:55:40;94643.13;;;18.51;96.92
65832;BME280;52593;42.648;23.332;2023-06-24T02:58:06;94646.66;;;18.52;97.37
65832;BME280;52593;42.648;23.332;2023-06-24T03:00:34;94654.19;;;18.50;97.28
65832;BME280;52593;42.648;23.332;2023-06-24T03:03:04;94663.88;;;18.58;97.21
65832;BME280;52593;42.648;23.332;2023-06-24T03:05:30;94661.19;;;18.58;96.91
65832;BME280;52593;42.648;23.332;2023-06-24T03:07:57;94661.19;;;18.58;97.00
65832;BME280;52593;42.648;23.332;2023-06-24T03:10:24;94659.16;;;18.53;97.62
65832;BME280;52593;42.648;23.332;2023-06-24T03:12:50;94654.44;;;18.48;97.69
65832;BME280;52593;42.648;23.332;2023-06-24T03:15:15;94660.31;;;18.45;98.53
65832;BME280;52593;42.648;23.332;2023-06-24T03:17:41;94649.25;;;18.47;98.41
65832;BME280;52593;42.648;23.332;2023-06-24T03:20:06;94653.75;;;18.53;98.38
65832;BME280;52593;42.648;23.332;2023-06-24T03:22:33;94654.22;;;18.62;98.05
65832;BME280;52593;42.648;23.332;2023-06-24T03:24:58;94647.41;;;18.71;97.17
65832;BME280;52593;42.648;23.332;2023-06-24T03:27:24;94653.22;;;18.75;97.06
65832;BME280;52593;42.648;23.332;2023-06-24T03:29:49;94651.78;;;18.72;97.00
65832;BME280;52593;42.648;23.332;2023-06-24T03:32:15;94666.66;;;18.81;96.40
65832;BME280;52593;42.648;23.332;2023-06-24T03:34:40;94675.56;;;18.88;95.88
65832;BME280;52593;42.648;23.332;2023-06-24T03:37:05;94679.56;;;18.98;95.67
65832;BME280;52593;42.648;23.332;2023-06-24T03:39:31;94689.09;;;18.88;96.24
65832;BME280;52593;42.648;23.332;2023-06-24T03:41:56;94685.47;;;18.95;95.66
65832;BME280;52593;42.648;23.332;2023-06-24T03:44:21;94688.66;;;18.92;95.96
65832;BME280;52593;42.648;23.332;2023-06-24T03:46:47;94694.19;;;18.97;96.29
65832;BME280;52593;42.648;23.332;2023-06-24T03:49:12;94699.50;;;18.92;96.44
65832;BME280;52593;42.648;23.332;2023-06-24T03:51:38;94706.25;;;19.13;94.46
65832;BME280;52593;42.648;23.332;2023-06-24T03:54:03;94702.94;;;19.11;95.08
65832;BME280;52593;42.648;23.332;2023-06-24T03:56:28;94695.41;;;19.13;95.30
65832;BME280;52593;42.648;23.332;2023-06-24T03:58:54;94695.88;;;19.10;95.39
65832;BME280;52593;42.648;23.332;2023-06-24T04:01:19;94696.31;;;19.06;96.53
65832;BME280;52593;42.648;23.332;2023-06-24T04:03:45;94698.13;;;19.13;96.16
65832;BME280;52593;42.648;23.332;2023-06-24T04:06:11;94690.34;;;19.16;95.27
65832;BME280;52593;42.648;23.332;2023-06-24T04:08:37;94694.47;;;19.19;95.11
65832;BME280;52593;42.648;23.332;2023-06-24T04:11:05;94698.81;;;19.20;93.95
65832;BME280;52593;42.648;23.332;2023-06-24T04:13:32;94705.47;;;19.36;93.14
65832;BME280;52593;42.648;23.332;2023-06-24T04:15:57;94701.19;;;19.40;93.35
65832;BME280;52593;42.648;23.332;2023-06-24T04:18:23;94699.31;;;19.52;92.52
65832;BME280;52593;42.648;23.332;2023-06-24T04:20:48;94699.22;;;19.59;92.08
65832;BME280;52593;42.648;23.332;2023-06-24T04:23:14;94687.53;;;19.58;92.24
65832;BME280;52593;42.648;23.332;2023-06-24T04:25:40;94690.69;;;19.55;92.17
65832;BME280;52593;42.648;23.332;2023-06-24T04:28:07;94686.47;;;19.59;91.28
65832;BME280;52593;42.648;23.332;2023-06-24T04:30:32;94678.91;;;19.61;91.98
65832;BME280;52593;42.648;23.332;2023-06-24T04:33:00;94677.03;;;19.62;92.07
65832;BME280;52593;42.648;23.332;2023-06-24T04:35:25;94672.28;;;19.69;91.49
65832;BME280;52593;42.648;23.332;2023-06-24T04:37:51;94673.97;;;19.82;90.28
65832;BME280;52593;42.648;23.332;2023-06-24T04:40:19;94675.63;;;19.83;90.19
65832;BME280;52593;42.648;23.332;2023-06-24T04:42:48;94673.59;;;19.90;90.59
65832;BME280;52593;42.648;23.332;2023-06-24T04:45:14;94670.88;;;20.02;89.52
65832;BME280;52593;42.648;23.332;2023-06-24T04:47:39;94663.78;;;20.01;88.53
65832;BME280;52593;42.648;23.332;2023-06-24T04:50:05;94668.00;;;20.09;88.99
65832;BME280;52593;42.648;23.332;2023-06-24T04:52:31;94669.50;;;20.28;87.40
65832;BME280;52593;42.648;23.332;2023-06-24T04:54:56;94671.81;;;20.37;86.89
65832;BME280;52593;42.648;23.332;2023-06-24T04:57:30;94676.59;;;20.58;85.44
65832;BME280;52593;42.648;23.332;2023-06-24T04:59:57;94676.69;;;20.75;84.57
65832;BME280;52593;42.648;23.332;2023-06-24T05:02:23;94676.59;;;20.87;82.83
65832;BME280;52593;42.648;23.332;2023-06-24T05:04:49;94676.72;;;20.92;83.02
65832;BME280;52593;42.648;23.332;2023-06-24T05:07:15;94677.34;;;20.99;82.63
65832;BME280;52593;42.648;23.332;2023-06-24T05:09:40;94671.03;;;20.94;83.43
65832;BME280;52593;42.648;23.332;2023-06-24T05:12:06;94684.31;;;21.07;83.29
65832;BME280;52593;42.648;23.332;2023-06-24T05:14:35;94690.16;;;21.16;82.96
65832;BME280;52593;42.648;23.332;2023-06-24T05:17:02;94681.84;;;21.23;80.55
65832;BME280;52593;42.648;23.332;2023-06-24T05:19:27;94678.69;;;21.14;81.26
65832;BME280;52593;42.648;23.332;2023-06-24T05:21:53;94676.66;;;21.21;80.14
65832;BME280;52593;42.648;23.332;2023-06-24T05:24:18;94679.44;;;21.09;81.42
65832;BME280;52593;42.648;23.332;2023-06-24T05:26:50;94671.16;;;21.04;82.34
65832;BME280;52593;42.648;23.332;2023-06-24T05:29:16;94672.25;;;21.03;83.30
65832;BME280;52593;42.648;23.332;2023-06-24T05:31:42;94663.25;;;21.02;81.00
65832;BME280;52593;42.648;23.332;2023-06-24T05:34:07;94668.31;;;21.11;81.43
65832;BME280;52593;42.648;23.332;2023-06-24T05:36:33;94661.81;;;21.12;81.79
65832;BME280;52593;42.648;23.332;2023-06-24T05:38:59;94667.75;;;21.26;81.83
65832;BME280;52593;42.648;23.332;2023-06-24T05:41:24;94663.78;;;21.33;80.17
65832;BME280;52593;42.648;23.332;2023-06-24T05:44:04;94663.09;;;21.43;80.90
65832;BME280;52593;42.648;23.332;2023-06-24T05:46:30;94660.88;;;21.40;80.01
65832;BME280;52593;42.648;23.332;2023-06-24T05:48:55;94666.88;;;21.42;79.31
65832;BME280;52593;42.648;23.332;2023-06-24T05:51:21;94663.38;;;21.59;77.69
65832;BME280;52593;42.648;23.332;2023-06-24T05:53:46;94672.50;;;21.69;77.41
65832;BME280;52593;42.648;23.332;2023-06-24T05:56:12;94667.63;;;21.71;78.25
65832;BME280;52593;42.648;23.332;2023-06-24T05:58:37;94663.28;;;21.70;77.97
65832;BME280;52593;42.648;23.332;2023-06-24T06:01:02;94667.16;;;21.75;78.04
65832;BME280;52593;42.648;23.332;2023-06-24T06:03:28;94658.41;;;21.72;78.12
65832;BME280;52593;42.648;23.332;2023-06-24T06:05:53;94656.81;;;21.77;78.71
65832;BME280;52593;42.648;23.332;2023-06-24T06:08:18;94660.38;;;21.77;77.95
65832;BME280;52593;42.648;23.332;2023-06-24T06:10:44;94651.19;;;21.83;78.12
65832;BME280;52593;42.648;23.332;2023-06-24T06:13:09;94657.22;;;21.85;78.60
65832;BME280;52593;42.648;23.332;2023-06-24T06:15:35;94645.56;;;21.90;77.84
65832;BME280;52593;42.648;23.332;2023-06-24T06:18:00;94654.06;;;21.94;77.22
65832;BME280;52593;42.648;23.332;2023-06-24T06:20:25;94657.69;;;21.99;76.88
65832;BME280;52593;42.648;23.332;2023-06-24T06:22:51;94648.84;;;22.14;76.47
65832;BME280;52593;42.648;23.332;2023-06-24T06:25:16;94655.06;;;22.09;77.93
65832;BME280;52593;42.648;23.332;2023-06-24T06:27:42;94654.66;;;22.18;77.05
65832;BME280;52593;42.648;23.332;2023-06-24T06:30:07;94654.59;;;22.35;76.31
65832;BME280;52593;42.648;23.332;2023-06-24T06:32:33;94655.59;;;22.51;74.79
65832;BME280;52593;42.648;23.332;2023-06-24T06:34:58;94649.94;;;22.57;74.32
65832;BME280;52593;42.648;23.332;2023-06-24T06:37:24;94659.56;;;22.65;74.03
65832;BME280;52593;42.648;23.332;2023-06-24T06:39:49;94662.69;;;22.52;75.34
65832;BME280;52593;42.648;23.332;2023-06-24T06:42:15;94663.75;;;22.51;73.72
65832;BME280;52593;42.648;23.332;2023-06-24T06:44:41;94665.72;;;22.55;75.34
65832;BME280;52593;42.648;23.332;2023-06-24T06:47:06;94678.25;;;22.51;75.44
65832;BME280;52593;42.648;23.332;2023-06-24T06:49:32;94678.16;;;22.68;73.75
65832;BME280;52593;42.648;23.332;2023-06-24T06:51:57;94671.34;;;22.71;74.11
65832;BME280;52593;42.648;23.332;2023-06-24T06:54:22;94672.19;;;22.71;73.27
65832;BME280;52593;42.648;23.332;2023-06-24T06:56:48;94677.00;;;22.64;73.25
65832;BME280;52593;42.648;23.332;2023-06-24T06:59:13;94667.94;;;22.58;74.50
65832;BME280;52593;42.648;23.332;2023-06-24T07:01:39;94669.09;;;22.62;73.88
65832;BME280;52593;42.648;23.332;2023-06-24T07:04:04;94664.69;;;22.61;73.81
65832;BME280;52593;42.648;23.332;2023-06-24T07:06:29;94672.97;;;22.67;73.75
65832;BME280;52593;42.648;23.332;2023-06-24T07:08:57;94669.75;;;23.02;72.67
65832;BME280;52593;42.648;23.332;2023-06-24T07:11:23;94668.78;;;23.13;72.20
65832;BME280;52593;42.648;23.332;2023-06-24T07:13:48;94679.72;;;23.13;71.72
65832;BME280;52593;42.648;23.332;2023-06-24T07:16:16;94676.47;;;23.17;71.76
65832;BME280;52593;42.648;23.332;2023-06-24T07:18:41;94675.16;;;23.24;71.88
65832;BME280;52593;42.648;23.332;2023-06-24T07:21:07;94678.94;;;23.18;70.73
65832;BME280;52593;42.648;23.332;2023-06-24T07:23:32;94674.38;;;23.02;71.63
65832;BME280;52593;42.648;23.332;2023-06-24T07:25:58;94671.31;;;23.20;70.82
65832;BME280;52593;42.648;23.332;2023-06-24T07:28:23;94673.81;;;23.27;71.18
65832;BME280;52593;42.648;23.332;2023-06-24T07:30:48;94679.00;;;23.23;74.67
65832;BME280;52593;42.648;23.332;2023-06-24T07:33:14;94669.25;;;23.32;70.91
65832;BME280;52593;42.648;23.332;2023-06-24T07:35:39;94669.56;;;23.41;70.73
65832;BME280;52593;42.648;23.332;2023-06-24T07:38:04;94672.47;;;23.62;69.83
65832;BME280;52593;42.648;23.332;2023-06-24T07:40:30;94667.81;;;23.62;72.05
65832;BME280;52593;42.648;23.332;2023-06-24T07:42:55;94668.09;;;23.66;72.36
65832;BME280;52593;42.648;23.332;2023-06-24T07:45:21;94660.28;;;23.80;70.80
65832;BME280;52593;42.648;23.332;2023-06-24T07:47:46;94661.47;;;23.89;70.62
65832;BME280;52593;42.648;23.332;2023-06-24T07:50:12;94667.28;;;24.03;70.48
65832;BME280;52593;42.648;23.332;2023-06-24T07:52:38;94668.38;;;24.07;70.01
65832;BME280;52593;42.648;23.332;2023-06-24T07:55:04;94672.97;;;23.96;70.30
65832;BME280;52593;42.648;23.332;2023-06-24T07:57:30;94667.03;;;24.04;69.75
65832;BME280;52593;42.648;23.332;2023-06-24T07:59:55;94676.03;;;24.05;68.76
65832;BME280;52593;42.648;23.332;2023-06-24T08:02:21;94670.34;;;24.17;68.93
65832;BME280;52593;42.648;23.332;2023-06-24T08:04:46;94671.84;;;24.45;70.07
65832;BME280;52593;42.648;23.332;2023-06-24T08:07:12;94673.56;;;24.62;67.64
65832;BME280;52593;42.648;23.332;2023-06-24T08:09:37;94677.34;;;24.55;68.07
65832;BME280;52593;42.648;23.332;2023-06-24T08:12:04;94669.66;;;24.47;67.52
65832;BME280;52593;42.648;23.332;2023-06-24T08:14:30;94667.47;;;24.49;67.54
65832;BME280;52593;42.648;23.332;2023-06-24T08:16:55;94665.66;;;24.70;68.77
65832;BME280;52593;42.648;23.332;2023-06-24T08:19:20;94661.03;;;24.86;67.57
65832;BME280;52593;42.648;23.332;2023-06-24T08:21:46;94658.91;;;25.09;68.75
65832;BME280;52593;42.648;23.332;2023-06-24T08:24:11;94660.53;;;25.20;67.04
65832;BME280;52593;42.648;23.332;2023-06-24T08:26:36;94662.19;;;25.16;66.18
65832;BME280;52593;42.648;23.332;2023-06-24T08:29:02;94665.19;;;25.20;66.18
65832;BME280;52593;42.648;23.332;2023-06-24T08:31:27;94655.91;;;25.52;63.57
65832;BME280;52593;42.648;23.332;2023-06-24T08:33:53;94661.94;;;25.64;62.83
65832;BME280;52593;42.648;23.332;2023-06-24T08:36:21;94651.50;;;25.66;64.96
65832;BME280;52593;42.648;23.332;2023-06-24T08:38:47;94654.81;;;25.73;63.93
65832;BME280;52593;42.648;23.332;2023-06-24T08:41:13;94653.13;;;25.88;63.32
65832;BME280;52593;42.648;23.332;2023-06-24T08:43:38;94655.03;;;26.13;63.33
65832;BME280;52593;42.648;23.332;2023-06-24T08:46:05;94655.28;;;26.16;62.95
65832;BME280;52593;42.648;23.332;2023-06-24T08:48:30;94641.59;;;26.06;64.20
65832;BME280;52593;42.648;23.332;2023-06-24T08:50:58;94639.31;;;26.34;61.60
65832;BME280;52593;42.648;23.332;2023-06-24T08:53:26;94633.00;;;26.39;61.11
65832;BME280;52593;42.648;23.332;2023-06-24T08:55:53;94640.38;;;26.43;62.49
65832;BME280;52593;42.648;23.332;2023-06-24T08:58:19;94630.75;;;26.46;59.96
65832;BME280;52593;42.648;23.332;2023-06-24T09:00:45;94638.41;;;26.54;59.91
65832;BME280;52593;42.648;23.332;2023-06-24T09:03:11;94635.59;;;26.69;60.67
65832;BME280;52593;42.648;23.332;2023-06-24T09:05:36;94639.69;;;26.77;59.44
65832;BME280;52593;42.648;23.332;2023-06-24T09:08:01;94635.09;;;26.57;60.18
65832;BME280;52593;42.648;23.332;2023-06-24T09:10:30;94636.28;;;26.36;61.33
65832;BME280;52593;42.648;23.332;2023-06-24T09:13:03;94640.94;;;26.40;61.27
65832;BME280;52593;42.648;23.332;2023-06-24T09:17:58;94638.50;;;26.88;60.45
65832;BME280;52593;42.648;23.332;2023-06-24T09:20:29;94634.38;;;26.91;60.56
65832;BME280;52593;42.648;23.332;2023-06-24T09:23:03;94636.69;;;27.13;56.63
65832;BME280;52593;42.648;23.332;2023-06-24T09:25:29;94639.41;;;27.18;57.98
65832;BME280;52593;42.648;23.332;2023-06-24T09:27:59;94641.06;;;27.14;60.22
65832;BME280;52593;42.648;23.332;2023-06-24T09:30:25;94644.25;;;27.37;57.45
65832;BME280;52593;42.648;23.332;2023-06-24T09:32:51;94650.66;;;27.56;57.98
65832;BME280;52593;42.648;23.332;2023-06-24T09:35:21;94650.19;;;27.49;57.60
65832;BME280;52593;42.648;23.332;2023-06-24T09:37:54;94643.03;;;27.48;55.41
65832;BME280;52593;42.648;23.332;2023-06-24T09:40:20;94641.00;;;27.88;54.23
65832;BME280;52593;42.648;23.332;2023-06-24T09:42:53;94645.50;;;27.50;58.94
65832;BME280;52593;42.648;23.332;2023-06-24T09:45:24;94637.91;;;27.36;58.28
65832;BME280;52593;42.648;23.332;2023-06-24T09:47:50;94639.84;;;27.31;58.20
65832;BME280;52593;42.648;23.332;2023-06-24T09:50:15;94643.16;;;27.67;58.12
65832;BME280;52593;42.648;23.332;2023-06-24T09:52:43;94645.34;;;27.65;55.42
65832;BME280;52593;42.648;23.332;2023-06-24T09:55:10;94632.03;;;28.07;53.82
65832;BME280;52593;42.648;23.332;2023-06-24T09:57:37;94633.69;;;28.32;53.53
65832;BME280;52593;42.648;23.332;2023-06-24T10:00:06;94628.34;;;28.41;50.55
65832;BME280;52593;42.648;23.332;2023-06-24T10:02:32;94626.28;;;28.52;52.71
65832;BME280;52593;42.648;23.332;2023-06-24T10:04:59;94617.97;;;28.57;51.96
65832;BME280;52593;42.648;23.332;2023-06-24T10:07:26;94609.44;;;28.77;50.92
65832;BME280;52593;42.648;23.332;2023-06-24T10:09:52;94612.56;;;28.90;51.48
65832;BME280;52593;42.648;23.332;2023-06-24T10:12:18;94607.44;;;29.02;50.17
65832;BME280;52593;42.648;23.332;2023-06-24T10:14:44;94598.38;;;29.21;51.21
65832;BME280;52593;42.648;23.332;2023-06-24T10:17:11;94601.34;;;29.24;49.81
65832;BME280;52593;42.648;23.332;2023-06-24T10:19:40;94597.97;;;29.27;50.64
65832;BME280;52593;42.648;23.332;2023-06-24T10:22:10;94585.97;;;29.18;51.23
65832;BME280;52593;42.648;23.332;2023-06-24T10:24:40;94579.78;;;29.45;50.38
65832;BME280;52593;42.648;23.332;2023-06-24T10:27:21;94568.16;;;29.62;48.40
65832;BME280;52593;42.648;23.332;2023-06-24T10:29:53;94573.63;;;29.81;47.23
65832;BME280;52593;42.648;23.332;2023-06-24T10:32:22;94567.59;;;29.93;46.59
65832;BME280;52593;42.648;23.332;2023-06-24T10:34:54;94570.97;;;29.90;48.46
65832;BME280;52593;42.648;23.332;2023-06-24T10:37:24;94563.31;;;30.29;48.01
65832;BME280;52593;42.648;23.332;2023-06-24T10:39:53;94558.59;;;30.15;46.91
65832;BME280;52593;42.648;23.332;2023-06-24T10:42:44;94556.75;;;30.11;45.85
65832;BME280;52593;42.648;23.332;2023-06-24T10:47:49;94556.06;;;30.19;45.81
65832;BME280;52593;42.648;23.332;2023-06-24T10:50:17;94544.00;;;30.15;44.44
65832;BME280;52593;42.648;23.332;2023-06-24T10:52:48;94532.44;;;30.27;44.35
65832;BME280;52593;42.648;23.332;2023-06-24T10:55:15;94538.81;;;29.99;46.51
65832;BME280;52593;42.648;23.332;2023-06-24T10:57:41;94540.00;;;30.21;45.72
65832;BME280;52593;42.648;23.332;2023-06-24T11:00:07;94537.84;;;30.32;46.72
65832;BME280;52593;42.648;23.332;2023-06-24T11:02:32;94537.22;;;30.35;45.84
65832;BME280;52593;42.648;23.332;2023-06-24T11:04:59;94527.00;;;30.63;45.11
65832;BME280;52593;42.648;23.332;2023-06-24T11:07:29;94517.00;;;30.76;43.10
65832;BME280;52593;42.648;23.332;2023-06-24T11:10:04;94529.22;;;30.98;43.76
65832;BME280;52593;42.648;23.332;2023-06-24T11:12:32;94526.38;;;30.89;42.94
65832;BME280;52593;42.648;23.332;2023-06-24T11:15:02;94528.81;;;30.90;44.02
65832;BME280;52593;42.648;23.332;2023-06-24T11:17:28;94532.09;;;31.38;42.47
65832;BME280;52593;42.648;23.332;2023-06-24T11:19:54;94526.31;;;31.48;42.44
65832;BME280;52593;42.648;23.332;2023-06-24T11:22:21;94530.38;;;31.73;40.58
65832;BME280;52593;42.648;23.332;2023-06-24T11:24:46;94534.97;;;31.87;40.43
65832;BME280;52593;42.648;23.332;2023-06-24T11:27:12;94530.50;;;31.99;41.75
65832;BME280;52593;42.648;23.332;2023-06-24T11:29:37;94529.75;;;31.85;42.24
65832;BME280;52593;42.648;23.332;2023-06-24T11:32:07;94542.19;;;31.34;42.35
65832;BME280;52593;42.648;23.332;2023-06-24T11:34:32;94534.34;;;30.68;40.98
65832;BME280;52593;42.648;23.332;2023-06-24T11:36:58;94529.56;;;30.32;42.98
65832;BME280;52593;42.648;23.332;2023-06-24T11:39:27;94529.78;;;30.08;44.33
65832;BME280;52593;42.648;23.332;2023-06-24T11:41:53;94525.28;;;29.70;45.10
65832;BME280;52593;42.648;23.332;2023-06-24T11:44:24;94523.81;;;29.59;45.33
65832;BME280;52593;42.648;23.332;2023-06-24T11:46:49;94517.31;;;29.55;44.21
65832;BME280;52593;42.648;23.332;2023-06-24T11:49:15;94519.53;;;29.52;44.57
65832;BME280;52593;42.648;23.332;2023-06-24T11:51:49;94509.44;;;29.62;43.99
65832;BME280;52593;42.648;23.332;2023-06-24T11:54:18;94504.72;;;29.34;45.04
65832;BME280;52593;42.648;23.332;2023-06-24T11:56:51;94503.09;;;29.47;45.19
65832;BME280;52593;42.648;23.332;2023-06-24T11:59:20;94504.88;;;29.71;45.04
65832;BME280;52593;42.648;23.332;2023-06-24T12:01:57;94489.66;;;29.87;45.72
65832;BME280;52593;42.648;23.332;2023-06-24T12:04:30;94486.38;;;30.13;44.19
65832;BME280;52593;42.648;23.332;2023-06-24T12:06:56;94478.69;;;30.24;42.83
65832;BME280;52593;42.648;23.332;2023-06-24T12:09:22;94465.50;;;30.21;44.44
65832;BME280;52593;42.648;23.332;2023-06-24T12:11:48;94468.06;;;30.17;43.79
65832;BME280;52593;42.648;23.332;2023-06-24T12:14:14;94461.88;;;29.84;44.46
65832;BME280;52593;42.648;23.332;2023-06-24T12:16:40;94458.19;;;29.61;44.46
65832;BME280;52593;42.648;23.332;2023-06-24T12:19:06;94468.97;;;29.43;45.59
65832;BME280;52593;42.648;23.332;2023-06-24T12:21:32;94463.38;;;29.48;44.33
65832;BME280;52593;42.648;23.332;2023-06-24T12:23:57;94465.41;;;29.29;45.88
65832;BME280;52593;42.648;23.332;2023-06-24T12:26:23;94459.53;;;29.16;45.13
65832;BME280;52593;42.648;23.332;2023-06-24T12:28:48;94461.19;;;29.17;45.31
65832;BME280;52593;42.648;23.332;2023-06-24T12:31:14;94463.19;;;28.98;47.75
65832;BME280;52593;42.648;23.332;2023-06-24T12:33:48;94460.63;;;28.69;50.63
65832;BME280;52593;42.648;23.332;2023-06-24T12:36:14;94470.91;;;28.63;49.01
65832;BME280;52593;42.648;23.332;2023-06-24T12:38:39;94473.72;;;28.39;50.30
65832;BME280;52593;42.648;23.332;2023-06-24T12:41:05;94480.72;;;28.31;51.03
65832;BME280;52593;42.648;23.332;2023-06-24T12:43:32;94492.56;;;28.32;52.33
65832;BME280;52593;42.648;23.332;2023-06-24T12:45:57;94504.28;;;28.18;53.06
65832;BME280;52593;42.648;23.332;2023-06-24T12:48:22;94509.41;;;28.25;51.45
65832;BME280;52593;42.648;23.332;2023-06-24T12:50:48;94518.66;;;28.10;52.79
65832;BME280;52593;42.648;23.332;2023-06-24T12:53:17;94529.84;;;27.94;53.01
65832;BME280;52593;42.648;23.332;2023-06-24T12:55:43;94536.09;;;27.76;51.98
65832;BME280;52593;42.648;23.332;2023-06-24T12:58:08;94537.16;;;27.80;51.67
65832;BME280;52593;42.648;23.332;2023-06-24T13:00:34;94533.72;;;27.69;51.91
65832;BME280;52593;42.648;23.332;2023-06-24T13:02:59;94541.19;;;27.64;52.67
65832;BME280;52593;42.648;23.332;2023-06-24T13:05:24;94536.63;;;27.54;51.14